createdAt,value
2018-06-28T00:01:13.451Z,10.10
2018-06-28T00:03:42.189Z,10.20
2018-06-28T00:06:10.855Z,10.20
2018-06-28T00:08:39.619Z,10.20
2018-06-28T00:11:08.628Z,10.30
2018-06-28T00:13:37.410Z,10.40
2018-06-28T00:16:06.274Z,10.40
2018-06-28T00:18:35.038Z,10.50
2018-06-28T00:21:03.799Z,10.50
2018-06-28T00:23:32.558Z,10.50
2018-06-28T00:26:01.350Z,10.60
2018-06-28T00:28:30.063Z,10.60
2018-06-28T00:30:58.722Z,10.60
2018-06-28T00:33:27.404Z,10.60
2018-06-28T00:35:56.092Z,10.60
2018-06-28T00:38:24.840Z,10.70
2018-06-28T00:40:53.528Z,10.70
2018-06-28T00:43:22.173Z,10.70
2018-06-28T00:45:50.802Z,10.70
2018-06-28T00:48:19.477Z,10.70
2018-06-28T00:50:48.150Z,10.70
2018-06-28T00:53:16.774Z,10.60
2018-06-28T00:55:45.435Z,10.70
2018-06-28T00:58:14.121Z,10.60
2018-06-28T01:00:42.769Z,10.60
2018-06-28T01:03:11.520Z,10.60
2018-06-28T01:05:40.230Z,10.60
2018-06-28T01:08:09.012Z,10.60
2018-06-28T01:10:37.713Z,10.60
2018-06-28T01:13:06.764Z,10.70
2018-06-28T01:15:35.500Z,10.80
2018-06-28T01:18:04.254Z,10.90
2018-06-28T01:20:33.016Z,11.00
2018-06-28T01:23:01.740Z,11.10
2018-06-28T01:25:30.509Z,11.20
2018-06-28T01:27:59.124Z,11.30
2018-06-28T01:30:28.026Z,11.40
2018-06-28T01:32:56.748Z,11.50
2018-06-28T01:35:25.514Z,11.50
2018-06-28T01:37:54.160Z,11.60
2018-06-28T01:40:23.157Z,11.60
2018-06-28T01:43:02.694Z,11.70
2018-06-28T01:45:31.407Z,11.70
2018-06-28T01:48:00.077Z,11.80
2018-06-28T01:50:28.742Z,11.80
2018-06-28T01:52:57.370Z,11.90
2018-06-28T01:55:26.045Z,11.90
2018-06-28T01:57:54.708Z,12.00
2018-06-28T02:00:23.358Z,12.00
2018-06-28T02:02:52.518Z,12.10
2018-06-28T02:05:21.275Z,12.20
2018-06-28T02:07:49.966Z,12.20
2018-06-28T02:10:18.672Z,12.20
2018-06-28T02:12:47.373Z,12.30
2018-06-28T02:15:16.010Z,12.30
2018-06-28T02:17:44.651Z,12.30
2018-06-28T02:20:13.382Z,12.30
2018-06-28T02:22:42.005Z,12.40
2018-06-28T02:25:10.678Z,12.40
2018-06-28T02:27:39.376Z,12.50
2018-06-28T02:30:08.075Z,12.50
2018-06-28T02:32:36.803Z,12.50
2018-06-28T02:35:05.674Z,12.50
2018-06-28T02:37:34.457Z,12.50
2018-06-28T02:40:03.164Z,12.60
2018-06-28T02:42:33.010Z,12.60
2018-06-28T02:45:01.693Z,12.60
2018-06-28T02:47:30.373Z,12.60
2018-06-28T02:49:59.579Z,12.60
2018-06-28T02:52:28.398Z,12.60
2018-06-28T02:54:57.423Z,12.60
2018-06-28T02:57:26.302Z,12.70
2018-06-28T02:59:55.018Z,12.60
2018-06-28T03:02:23.990Z,12.60
2018-06-28T03:04:52.841Z,12.60
2018-06-28T03:07:21.615Z,12.60
2018-06-28T03:09:50.389Z,12.60
2018-06-28T03:12:19.359Z,12.60
2018-06-28T03:14:48.140Z,12.60
2018-06-28T03:17:16.851Z,12.60
2018-06-28T03:19:45.689Z,12.50
2018-06-28T03:22:14.386Z,12.50
2018-06-28T03:24:43.219Z,12.50
2018-06-28T03:27:11.868Z,12.50
2018-06-28T03:29:40.610Z,12.50
2018-06-28T03:32:09.230Z,12.50
2018-06-28T03:34:37.969Z,12.50
2018-06-28T03:37:06.694Z,12.50
2018-06-28T03:39:35.388Z,12.50
2018-06-28T03:42:04.163Z,12.50
2018-06-28T03:44:32.871Z,12.50
2018-06-28T03:47:01.603Z,12.50
2018-06-28T03:49:30.398Z,12.50
2018-06-28T03:51:59.195Z,12.50
2018-06-28T03:54:28.220Z,12.50
2018-06-28T03:56:56.931Z,12.50
2018-06-28T03:59:25.684Z,12.60
2018-06-28T04:01:54.474Z,12.60
2018-06-28T04:04:23.221Z,12.60
2018-06-28T04:06:51.941Z,12.70
2018-06-28T04:09:20.681Z,12.70
2018-06-28T04:11:49.411Z,12.80
2018-06-28T04:14:18.128Z,12.80
2018-06-28T04:16:46.880Z,12.90
2018-06-28T04:19:15.565Z,12.90
2018-06-28T04:21:44.349Z,12.90
2018-06-28T04:24:13.098Z,12.90
2018-06-28T04:26:41.917Z,13.00
2018-06-28T04:29:10.684Z,13.00
2018-06-28T04:31:39.599Z,13.00
2018-06-28T04:34:08.450Z,13.00
2018-06-28T04:36:37.211Z,13.00
2018-06-28T04:39:08.595Z,13.00
2018-06-28T04:41:37.502Z,13.00
2018-06-28T04:44:06.187Z,13.00
2018-06-28T04:46:34.923Z,13.00
2018-06-28T04:49:03.653Z,13.00
2018-06-28T04:51:32.440Z,13.00
2018-06-28T04:54:01.177Z,13.00
2018-06-28T04:56:29.990Z,13.10
2018-06-28T04:58:58.787Z,13.10
2018-06-28T05:01:27.735Z,13.10
2018-06-28T05:03:56.938Z,13.20
2018-06-28T05:06:25.730Z,13.20
2018-06-28T05:08:54.501Z,13.30
2018-06-28T05:11:23.251Z,13.30
2018-06-28T05:13:51.987Z,13.40
2018-06-28T05:16:20.702Z,13.50
2018-06-28T05:18:49.368Z,13.60
2018-06-28T05:21:18.089Z,13.70
2018-06-28T05:23:46.911Z,13.90
2018-06-28T05:26:15.768Z,14.00
2018-06-28T05:28:44.591Z,14.10
2018-06-28T05:31:13.382Z,14.20
2018-06-28T05:33:42.200Z,14.20
2018-06-28T05:36:10.928Z,14.30
2018-06-28T05:38:39.730Z,14.30
2018-06-28T05:41:08.505Z,14.40
2018-06-28T05:43:37.342Z,14.50
2018-06-28T05:46:06.249Z,14.50
2018-06-28T05:48:35.031Z,14.50
2018-06-28T05:51:03.872Z,14.50
2018-06-28T05:53:32.639Z,14.50
2018-06-28T05:56:01.491Z,14.60
2018-06-28T05:58:30.224Z,14.60
2018-06-28T06:00:58.964Z,14.60
2018-06-28T06:03:27.752Z,14.60
2018-06-28T06:05:56.558Z,14.80
2018-06-28T06:08:25.244Z,14.90
2018-06-28T06:10:53.959Z,15.10
2018-06-28T06:13:22.649Z,15.40
2018-06-28T06:15:51.408Z,15.60
2018-06-28T06:18:20.097Z,15.70
2018-06-28T06:20:48.793Z,15.70
2018-06-28T06:23:17.501Z,15.70
2018-06-28T06:25:46.286Z,15.60
2018-06-28T06:28:14.921Z,15.70
2018-06-28T06:30:43.816Z,15.70
2018-06-28T06:33:12.389Z,15.70
2018-06-28T06:35:41.154Z,15.70
2018-06-28T06:38:09.879Z,15.60
2018-06-28T06:40:38.600Z,15.50
2018-06-28T06:43:07.403Z,15.50
2018-06-28T06:45:36.105Z,15.40
2018-06-28T06:48:04.824Z,15.50
2018-06-28T06:50:33.447Z,15.60
2018-06-28T06:53:02.059Z,15.70
2018-06-28T06:55:30.769Z,15.80
2018-06-28T06:57:59.735Z,15.90
2018-06-28T07:00:28.577Z,15.80
2018-06-28T07:02:57.351Z,15.70
2018-06-28T07:05:26.283Z,15.60
2018-06-28T07:07:55.252Z,15.50
2018-06-28T07:10:24.125Z,15.30
2018-06-28T07:12:53.028Z,15.40
2018-06-28T07:15:21.797Z,15.30
2018-06-28T07:17:50.607Z,15.30
2018-06-28T07:20:20.829Z,15.40
2018-06-28T07:22:49.840Z,15.50
2018-06-28T07:25:19.021Z,15.50
2018-06-28T07:27:48.098Z,15.60
2018-06-28T07:30:23.590Z,15.70
2018-06-28T07:32:52.395Z,15.70
2018-06-28T07:35:21.173Z,15.70
2018-06-28T07:37:50.060Z,15.80
2018-06-28T07:40:18.721Z,15.80
2018-06-28T07:42:47.408Z,15.80
2018-06-28T07:45:16.078Z,15.70
2018-06-28T07:47:44.762Z,15.70
2018-06-28T07:50:13.468Z,15.70
2018-06-28T07:52:42.124Z,15.80
2018-06-28T07:55:10.778Z,15.90
2018-06-28T07:57:39.466Z,15.90
2018-06-28T08:00:08.517Z,15.80
2018-06-28T08:02:37.813Z,15.90
2018-06-28T08:05:06.735Z,15.90
2018-06-28T08:07:35.546Z,16.00
2018-06-28T08:10:04.439Z,16.00
2018-06-28T08:12:37.165Z,16.00
2018-06-28T08:15:06.027Z,16.10
2018-06-28T08:17:34.728Z,16.30
2018-06-28T08:20:03.853Z,16.30
2018-06-28T08:22:32.587Z,16.20
2018-06-28T08:25:01.383Z,16.20
2018-06-28T08:27:30.298Z,16.30
2018-06-28T08:29:59.229Z,16.10
2018-06-28T08:32:27.976Z,16.10
2018-06-28T08:34:56.844Z,16.10
2018-06-28T08:37:25.558Z,16.00
2018-06-28T08:39:54.339Z,16.00
2018-06-28T08:42:25.276Z,16.00
2018-06-28T08:44:54.764Z,16.00
2018-06-28T08:47:23.543Z,16.10
2018-06-28T08:49:52.752Z,16.10
2018-06-28T08:52:21.462Z,16.00
2018-06-28T08:54:51.506Z,16.00
2018-06-28T08:57:21.779Z,16.10
2018-06-28T09:00:03.616Z,16.10
2018-06-28T09:02:36.219Z,16.10
2018-06-28T09:05:06.554Z,16.00
2018-06-28T09:07:36.470Z,16.10
2018-06-28T09:10:07.072Z,16.30
2018-06-28T09:12:37.080Z,16.40
2018-06-28T09:15:07.378Z,16.40
2018-06-28T09:17:36.733Z,16.50
2018-06-28T09:20:06.873Z,16.50
2018-06-28T09:22:36.903Z,16.60
2018-06-28T09:25:08.247Z,16.60
2018-06-28T09:27:38.180Z,16.60
2018-06-28T09:30:08.607Z,16.70
2018-06-28T09:32:38.199Z,16.80
2018-06-28T09:35:08.315Z,16.90
2018-06-28T09:37:37.975Z,17.00
2018-06-28T09:40:08.191Z,17.00
2018-06-28T09:42:38.639Z,17.00
2018-06-28T09:45:08.746Z,17.00
2018-06-28T09:47:38.071Z,17.00
2018-06-28T09:50:07.456Z,17.00
2018-06-28T09:52:36.517Z,16.90
2018-06-28T09:55:05.773Z,16.70
2018-06-28T09:57:34.943Z,16.50
2018-06-28T10:00:04.624Z,16.50
2018-06-28T10:02:33.867Z,16.50
2018-06-28T10:05:03.186Z,16.60
2018-06-28T10:07:32.593Z,16.70
2018-06-28T10:10:01.980Z,16.60
2018-06-28T10:12:31.158Z,16.60
2018-06-28T10:15:00.480Z,16.60
2018-06-28T10:17:29.833Z,16.60
2018-06-28T10:19:59.487Z,16.60
2018-06-28T10:22:29.180Z,16.70
2018-06-28T10:24:59.087Z,16.70
2018-06-28T10:27:28.647Z,16.70
2018-06-28T10:29:58.250Z,16.70
2018-06-28T10:32:27.785Z,16.70
2018-06-28T10:34:57.070Z,16.80
2018-06-28T10:37:26.799Z,16.80
2018-06-28T10:39:56.125Z,16.90
2018-06-28T10:42:25.823Z,17.00
2018-06-28T10:44:55.146Z,17.10
2018-06-28T10:47:24.704Z,17.00
2018-06-28T10:49:54.050Z,17.00
2018-06-28T10:52:23.636Z,17.00
2018-06-28T10:54:53.534Z,17.00
2018-06-28T10:57:22.908Z,17.10
2018-06-28T10:59:52.090Z,17.10
2018-06-28T11:02:21.709Z,17.20
2018-06-28T11:04:51.354Z,17.30
2018-06-28T11:07:20.702Z,17.30
2018-06-28T11:09:49.798Z,17.20
2018-06-28T11:12:19.085Z,17.30
2018-06-28T11:14:48.461Z,17.30
2018-06-28T11:17:17.957Z,17.30
2018-06-28T11:19:47.526Z,17.20
2018-06-28T11:22:16.918Z,17.10
2018-06-28T11:24:47.055Z,17.10
2018-06-28T11:27:16.639Z,17.00
2018-06-28T11:29:46.316Z,17.10
2018-06-28T11:32:16.461Z,17.20
2018-06-28T11:34:45.945Z,17.20
2018-06-28T11:37:15.356Z,17.30
2018-06-28T11:39:44.741Z,17.20
2018-06-28T11:42:15.327Z,17.10
2018-06-28T11:44:44.610Z,17.10
2018-06-28T11:47:14.008Z,17.00
2018-06-28T11:49:43.258Z,16.90
2018-06-28T11:52:12.752Z,17.00
2018-06-28T11:54:42.881Z,16.90
2018-06-28T11:57:12.781Z,16.80
2018-06-28T11:59:42.717Z,16.80
2018-06-28T12:02:12.173Z,16.70
2018-06-28T12:04:41.364Z,16.60
2018-06-28T12:07:10.717Z,16.50
2018-06-28T12:09:39.952Z,16.50
2018-06-28T12:12:09.206Z,16.40
2018-06-28T12:14:38.304Z,16.30
2018-06-28T12:17:07.712Z,16.20
2018-06-28T12:19:37.245Z,16.20
2018-06-28T12:22:06.396Z,16.30
2018-06-28T12:24:35.675Z,16.40
2018-06-28T12:27:05.725Z,16.40
2018-06-28T12:29:34.965Z,16.40
2018-06-28T12:32:04.807Z,16.50
2018-06-28T12:34:33.849Z,16.50
2018-06-28T12:37:02.890Z,16.60
2018-06-28T12:39:32.430Z,16.70
2018-06-28T12:42:01.816Z,16.90
2018-06-28T12:44:31.289Z,17.10
2018-06-28T12:47:38.427Z,17.40
2018-06-28T12:50:07.924Z,17.50
2018-06-28T12:52:45.915Z,17.60
2018-06-28T12:55:17.282Z,17.60
2018-06-28T12:57:46.920Z,17.70
2018-06-28T13:00:16.650Z,17.60
2018-06-28T13:02:46.221Z,17.60
2018-06-28T13:05:16.362Z,17.60
2018-06-28T13:07:45.639Z,17.50
2018-06-28T13:10:16.618Z,17.40
2018-06-28T13:12:45.998Z,17.40
2018-06-28T13:15:15.816Z,17.30
2018-06-28T13:17:45.152Z,17.40
2018-06-28T13:20:14.739Z,17.30
2018-06-28T13:22:43.969Z,17.30
2018-06-28T13:25:13.577Z,17.20
2018-06-28T13:27:43.126Z,17.10
2018-06-28T13:30:12.547Z,17.10
2018-06-28T13:32:41.963Z,17.10
2018-06-28T13:35:11.832Z,17.00
2018-06-28T13:37:41.856Z,17.00
2018-06-28T13:40:11.093Z,16.90
2018-06-28T13:42:40.332Z,16.90
2018-06-28T13:45:09.763Z,16.80
2018-06-28T13:47:39.040Z,16.80
2018-06-28T13:50:08.461Z,16.70
2018-06-28T13:52:37.432Z,16.60
2018-06-28T13:55:06.319Z,16.60
2018-06-28T13:57:35.393Z,16.50
2018-06-28T14:00:04.511Z,16.50
2018-06-28T14:02:33.494Z,16.40
2018-06-28T14:05:02.503Z,16.30
2018-06-28T14:07:31.656Z,16.30
2018-06-28T14:10:00.643Z,16.20
2018-06-28T14:12:29.824Z,16.20
2018-06-28T14:14:59.143Z,16.10
2018-06-28T14:17:28.200Z,16.10
2018-06-28T14:19:57.371Z,16.00
2018-06-28T14:22:26.227Z,16.00
2018-06-28T14:24:55.367Z,16.00
2018-06-28T14:27:24.442Z,16.00
2018-06-28T14:29:53.549Z,16.00
2018-06-28T14:32:22.588Z,16.10
2018-06-28T14:34:51.698Z,16.00
2018-06-28T14:37:20.790Z,16.00
2018-06-28T14:39:49.871Z,16.00
2018-06-28T14:42:18.901Z,16.00
2018-06-28T14:44:47.925Z,16.00
2018-06-28T14:47:17.163Z,16.00
2018-06-28T14:49:46.166Z,16.00
2018-06-28T14:52:15.128Z,16.00
2018-06-28T14:54:44.470Z,15.90
2018-06-28T14:57:14.191Z,16.00
2018-06-28T14:59:43.453Z,15.90
2018-06-28T15:02:12.608Z,15.90
2018-06-28T15:04:41.722Z,15.80
2018-06-28T15:07:11.030Z,15.80
2018-06-28T15:09:40.141Z,15.80
2018-06-28T15:12:09.288Z,15.80
2018-06-28T15:14:38.443Z,15.80
2018-06-28T15:17:08.398Z,15.70
2018-06-28T15:19:38.018Z,15.70
2018-06-28T15:22:11.502Z,15.70
2018-06-28T15:24:40.664Z,15.60
2018-06-28T15:27:09.949Z,15.60
2018-06-28T15:29:39.178Z,15.60
2018-06-28T15:32:08.549Z,15.60
2018-06-28T15:34:37.758Z,15.60
2018-06-28T15:37:07.264Z,15.60
2018-06-28T15:39:36.532Z,15.70
2018-06-28T15:42:05.729Z,15.70
2018-06-28T15:44:34.799Z,15.60
2018-06-28T15:47:04.036Z,15.70
2018-06-28T15:49:33.283Z,15.70
2018-06-28T15:52:02.456Z,15.70
2018-06-28T15:54:31.259Z,15.60
2018-06-28T15:57:00.602Z,15.60
2018-06-28T15:59:29.423Z,15.60
2018-06-28T16:01:58.511Z,15.60
2018-06-28T16:04:29.873Z,15.60
2018-06-28T16:07:02.283Z,15.60
2018-06-28T16:09:31.644Z,15.50
2018-06-28T16:12:01.453Z,15.50
2018-06-28T16:14:30.888Z,15.50
2018-06-28T16:17:00.165Z,15.50
2018-06-28T16:19:29.536Z,15.50
2018-06-28T16:21:59.244Z,15.50
2018-06-28T16:24:29.165Z,15.50
2018-06-28T16:26:58.945Z,15.60
2018-06-28T16:29:28.396Z,15.50
2018-06-28T16:31:58.013Z,15.50
2018-06-28T16:34:27.601Z,15.60
2018-06-28T16:36:57.063Z,15.60
2018-06-28T16:39:27.192Z,15.60
2018-06-28T16:41:56.528Z,15.60
2018-06-28T16:44:26.680Z,15.60
2018-06-28T16:46:56.201Z,15.60
2018-06-28T16:49:26.496Z,15.60
2018-06-28T16:51:55.948Z,15.60
2018-06-28T16:54:26.133Z,15.60
2018-06-28T16:56:56.226Z,15.60
2018-06-28T16:59:26.009Z,15.60
2018-06-28T17:01:55.579Z,15.60
2018-06-28T17:04:26.316Z,15.50
2018-06-28T17:06:56.221Z,15.50
2018-06-28T17:09:25.968Z,15.50
2018-06-28T17:11:55.991Z,15.40
2018-06-28T17:14:25.247Z,15.40
2018-06-28T17:16:54.643Z,15.30
2018-06-28T17:19:25.362Z,15.30
2018-06-28T17:21:56.596Z,15.30
2018-06-28T17:24:26.055Z,15.30
2018-06-28T17:26:56.558Z,15.30
2018-06-28T17:29:26.060Z,15.30
2018-06-28T17:31:55.810Z,15.30
2018-06-28T17:34:25.509Z,15.30
2018-06-28T17:36:55.712Z,15.20
2018-06-28T17:39:24.978Z,15.20
2018-06-28T17:41:54.444Z,15.20
2018-06-28T17:44:23.910Z,15.20
2018-06-28T17:46:53.217Z,15.20
2018-06-28T17:49:22.417Z,15.20
2018-06-28T17:51:51.549Z,15.20
2018-06-28T17:54:20.796Z,15.20
2018-06-28T17:56:50.279Z,15.10
2018-06-28T17:59:19.628Z,15.20
2018-06-28T18:01:48.878Z,15.10
2018-06-28T18:04:18.109Z,15.10
2018-06-28T18:06:47.188Z,15.10
2018-06-28T18:09:16.383Z,15.10
2018-06-28T18:11:45.756Z,15.10
2018-06-28T18:14:15.163Z,15.10
2018-06-28T18:16:44.279Z,15.10
2018-06-28T18:19:13.491Z,15.10
2018-06-28T18:21:44.179Z,15.10
2018-06-28T18:24:14.557Z,15.10
2018-06-28T18:26:43.680Z,15.10
2018-06-28T18:29:13.277Z,15.10
2018-06-28T18:31:42.782Z,15.10
2018-06-28T18:34:12.264Z,15.10
2018-06-28T18:36:41.601Z,15.10
2018-06-28T18:39:11.477Z,15.10
2018-06-28T18:41:41.418Z,15.10
2018-06-28T18:44:11.169Z,15.10
2018-06-28T18:46:41.921Z,15.10
2018-06-28T18:49:11.539Z,15.10
2018-06-28T18:51:41.580Z,15.10
2018-06-28T18:54:10.788Z,15.10
2018-06-28T18:56:40.651Z,15.10
2018-06-28T18:59:10.078Z,15.10
2018-06-28T19:01:39.700Z,15.10
2018-06-28T19:04:09.241Z,15.10
2018-06-28T19:06:39.388Z,15.10
2018-06-28T19:09:10.896Z,15.10
2018-06-28T19:11:40.389Z,15.10
2018-06-28T19:14:14.888Z,15.10
2018-06-28T19:16:49.421Z,15.10
2018-06-28T19:19:18.890Z,15.10
2018-06-28T19:21:53.571Z,15.00
2018-06-28T19:24:23.562Z,15.00
2018-06-28T19:26:52.698Z,15.00
2018-06-28T19:29:27.341Z,15.00
2018-06-28T19:32:02.157Z,15.00
2018-06-28T19:34:31.715Z,15.00
2018-06-28T19:37:01.477Z,15.00
2018-06-28T19:39:36.264Z,15.00
2018-06-28T19:43:09.439Z,15.00
2018-06-28T19:45:40.201Z,14.90
2018-06-28T19:48:10.324Z,14.90
2018-06-28T19:50:45.649Z,14.90
2018-06-28T19:53:16.934Z,14.80
2018-06-28T19:55:46.933Z,14.80
2018-06-28T19:58:16.884Z,14.70
2018-06-28T20:00:52.515Z,14.60
2018-06-28T20:03:28.247Z,14.60
2018-06-28T20:05:58.231Z,14.60
2018-06-28T20:08:28.218Z,14.50
2018-06-28T20:10:58.052Z,14.50
2018-06-28T20:13:33.062Z,14.50
2018-06-28T20:16:07.537Z,14.40
2018-06-28T20:18:41.982Z,14.40
2018-06-28T20:21:11.940Z,14.40
2018-06-28T20:23:41.811Z,14.40
2018-06-28T20:26:16.598Z,14.30
2018-06-28T20:28:51.505Z,14.20
2018-06-28T20:31:26.324Z,14.20
2018-06-28T20:34:01.218Z,14.20
2018-06-28T20:36:31.766Z,14.10
2018-06-28T20:39:03.453Z,14.10
2018-06-28T20:41:38.054Z,14.00
2018-06-28T20:44:13.552Z,14.00
2018-06-28T20:46:43.662Z,13.90
2018-06-28T20:49:13.982Z,13.90
2018-06-28T20:51:46.726Z,13.90
2018-06-28T20:54:17.612Z,13.80
2018-06-28T20:56:48.461Z,13.70
2018-06-28T20:59:20.149Z,13.60
2018-06-28T21:01:49.668Z,13.60
2018-06-28T21:04:19.182Z,13.60
2018-06-28T21:06:48.581Z,13.60
2018-06-28T21:09:18.408Z,13.60
2018-06-28T21:11:48.806Z,13.50
2018-06-28T21:14:18.122Z,13.50
2018-06-28T21:16:47.477Z,13.60
2018-06-28T21:19:16.877Z,13.60
2018-06-28T21:21:46.477Z,13.50
2018-06-28T21:24:15.778Z,13.50
2018-06-28T21:26:45.045Z,13.50
2018-06-28T21:29:14.415Z,13.40
2018-06-28T21:31:43.946Z,13.40
2018-06-28T21:34:13.303Z,13.40
2018-06-28T21:36:42.714Z,13.40
2018-06-28T21:39:12.437Z,13.40
2018-06-28T21:41:41.741Z,13.40
2018-06-28T21:44:11.108Z,13.40
2018-06-28T21:46:40.506Z,13.40
2018-06-28T21:49:09.737Z,13.40
2018-06-28T21:51:39.126Z,13.40
2018-06-28T21:54:08.509Z,13.40
2018-06-28T21:56:38.001Z,13.40
2018-06-28T21:59:07.364Z,13.40
2018-06-28T22:01:37.070Z,13.40
2018-06-28T22:04:06.516Z,13.50
2018-06-28T22:06:35.806Z,13.50
2018-06-28T22:09:05.926Z,13.50
2018-06-28T22:11:35.258Z,13.60
2018-06-28T22:14:04.646Z,13.60
2018-06-28T22:16:33.933Z,13.60
2018-06-28T22:19:03.477Z,13.60
2018-06-28T22:21:32.988Z,13.60
2018-06-28T22:24:02.433Z,13.60
2018-06-28T22:26:31.754Z,13.60
2018-06-28T22:29:01.097Z,13.60
2018-06-28T22:31:30.542Z,13.70
2018-06-28T22:34:00.212Z,13.70
2018-06-28T22:36:29.737Z,13.70
2018-06-28T22:39:00.038Z,13.70
2018-06-28T22:41:29.562Z,13.70
2018-06-28T22:43:59.377Z,13.70
2018-06-28T22:46:30.009Z,13.70
2018-06-28T22:48:59.928Z,13.70
2018-06-28T22:51:33.512Z,13.70
2018-06-28T22:54:03.075Z,13.70
2018-06-28T22:56:32.618Z,13.60
2018-06-28T22:59:02.111Z,13.60
2018-06-28T23:01:31.650Z,13.60
2018-06-28T23:04:01.071Z,13.60
2018-06-28T23:06:30.822Z,13.60
2018-06-28T23:09:00.096Z,13.70
2018-06-28T23:11:29.264Z,13.80
2018-06-28T23:13:58.622Z,13.80
2018-06-28T23:16:27.849Z,13.90
2018-06-28T23:18:57.346Z,13.90
2018-06-28T23:21:26.575Z,14.00
2018-06-28T23:23:55.722Z,14.00
2018-06-28T23:26:24.914Z,14.00
2018-06-28T23:28:54.428Z,14.00
2018-06-28T23:31:24.070Z,14.00
2018-06-28T23:33:54.105Z,14.10
2018-06-28T23:36:24.417Z,14.10
2018-06-28T23:38:55.594Z,14.10
2018-06-28T23:41:25.510Z,14.20
2018-06-28T23:44:07.865Z,14.20
2018-06-28T23:46:37.942Z,14.20
2018-06-28T23:49:13.677Z,14.20
2018-06-28T23:51:43.744Z,14.20
2018-06-28T23:54:16.875Z,14.20
2018-06-28T23:56:51.558Z,14.30
2018-06-28T23:59:41.285Z,14.20
